Time;durP1;ratioP1;P1;durP2;ratioP2;P2;SDS_P1;SDS_P2;PMS_P1;PMS_P2;Temp;Humidity;BMP_temperature;BMP_pressure;BME280_temperature;BME280_humidity;BME280_pressure;Samples;Min_cycle;Max_cycle;Signal;HPM_P1;HPM_P2
2023/04/11 00:00:12;;;;;;;;;1.75;1.00;;;;;12.12;64.94;100883.41;4996725;28;45491;-62
2023/04/11 00:02:40;;;;;;;;;3.00;1.60;;;;;12.41;64.61;100929.84;4996216;28;45754;-62
2023/04/11 00:05:06;;;;;;;;;6.00;1.60;;;;;12.40;64.41;100937.28;4994863;28;45350;-63
2023/04/11 00:07:32;;;;;;;;;1.00;1.00;;;;;12.13;63.99;100909.03;4962854;28;45424;-63
2023/04/11 00:09:57;;;;;;;;;1.00;1.00;;;;;12.31;63.60;100960.59;4978552;28;45324;-63
2023/04/11 00:12:23;;;;;;;;;1.00;1.00;;;;;12.22;63.33;100959.16;4994092;28;46387;-63
2023/04/11 00:14:48;;;;;;;;;0.50;0.00;;;;;12.18;63.49;100959.59;4958963;28;45843;-63
2023/04/11 00:17:16;;;;;;;;;1.75;0.00;;;;;12.16;63.71;100949.84;4977365;28;45333;-62
2023/04/11 00:19:42;;;;;;;;;4.00;1.40;;;;;12.16;64.11;100956.22;4975254;28;45417;-63
2023/04/11 00:22:09;;;;;;;;;1.75;0.75;;;;;12.20;63.48;100962.97;4975487;28;45461;-63
2023/04/11 00:24:34;;;;;;;;;1.00;1.00;;;;;12.14;63.27;100954.75;4975420;28;46177;-61
2023/04/11 00:27:00;;;;;;;;;3.00;2.00;;;;;12.18;63.34;100953.25;4976661;28;45458;-62
2023/04/11 00:29:26;;;;;;;;;1.00;1.00;;;;;12.21;62.56;100958.31;4975302;28;45515;-62
2023/04/11 00:31:54;;;;;;;;;2.00;0.00;;;;;12.17;63.05;100948.81;4974020;28;46349;-63
2023/04/11 00:34:20;;;;;;;;;2.00;1.20;;;;;12.18;62.43;100961.50;4976054;28;45362;-61
2023/04/11 00:36:46;;;;;;;;;0.60;0.60;;;;;12.15;62.10;100954.53;4976585;28;45334;-63
2023/04/11 00:39:12;;;;;;;;;1.00;1.00;;;;;11.89;62.29;100914.16;4975453;28;45497;-63
2023/04/11 00:41:38;;;;;;;;;2.00;1.00;;;;;12.12;62.55;100965.13;4974781;28;47753;-63
2023/04/11 00:44:07;;;;;;;;;1.50;0.50;;;;;12.10;62.22;100965.34;4974367;28;45441;-63
2023/04/11 00:46:34;;;;;;;;;2.00;1.00;;;;;11.97;62.92;100957.94;4962376;28;45257;-63
2023/04/11 00:49:00;;;;;;;;;0.00;0.00;;;;;12.00;62.21;100963.00;4996014;28;45379;-63
2023/04/11 00:51:26;;;;;;;;;1.25;1.25;;;;;11.98;61.93;100962.38;4961648;28;47218;-63
2023/04/11 00:53:51;;;;;;;;;1.00;1.00;;;;;11.90;62.35;100949.69;4961654;28;45713;-63
2023/04/11 00:56:17;;;;;;;;;0.75;0.75;;;;;11.97;62.01;100959.84;4977987;28;45421;-63
2023/04/11 00:58:42;;;;;;;;;4.50;1.50;;;;;12.02;62.59;100960.88;4974172;28;45638;-63
2023/04/11 01:01:08;;;;;;;;;1.00;1.00;;;;;11.97;61.92;100968.97;4964289;28;47915;-63
2023/04/11 01:03:37;;;;;;;;;2.00;0.75;;;;;11.74;61.88;100936.44;4973390;28;45421;-63
2023/04/11 01:06:07;;;;;;;;;1.40;0.40;;;;;11.97;61.53;100966.19;4975819;28;45327;-64
2023/04/11 01:08:34;;;;;;;;;0.00;0.00;;;;;11.90;61.47;100974.47;4939770;28;45590;-63
2023/04/11 01:11:00;;;;;;;;;0.20;0.20;;;;;11.84;61.57;100963.50;4971117;28;46133;-63
2023/04/11 01:13:26;;;;;;;;;1.80;1.20;;;;;11.50;62.07;100945.16;4940831;28;46337;-63
2023/04/11 01:15:52;;;;;;;;;1.00;1.00;;;;;11.66;62.09;100967.75;4954467;28;45485;-63
2023/04/11 01:18:17;;;;;;;;;3.25;1.25;;;;;11.72;61.80;100980.63;4974725;28;45613;-62
2023/04/11 01:20:43;;;;;;;;;1.75;1.00;;;;;11.43;61.87;100930.56;4975456;28;46553;-62
2023/04/11 01:23:09;;;;;;;;;1.00;1.00;;;;;11.74;61.20;100994.19;4958174;28;45505;-63
2023/04/11 01:25:35;;;;;;;;;0.60;0.60;;;;;11.69;61.30;100986.53;4942288;28;45292;-63
2023/04/11 01:28:00;;;;;;;;;1.00;0.50;;;;;11.66;60.96;100997.97;4958355;28;45615;-63
2023/04/11 01:30:26;;;;;;;;;1.50;1.50;;;;;11.66;61.21;100986.97;4975687;28;45666;-63
2023/04/11 01:32:51;;;;;;;;;3.75;2.00;;;;;11.65;60.46;100975.13;4958303;28;45409;-64
2023/04/11 01:35:17;;;;;;;;;1.00;1.00;;;;;11.51;60.97;100954.22;4976657;28;45389;-64
2023/04/11 01:37:43;;;;;;;;;1.00;1.00;;;;;11.58;60.78;100977.03;4959739;28;45237;-63
2023/04/11 01:40:08;;;;;;;;;5.00;2.00;;;;;11.46;61.40;100979.59;4942582;28;47634;-63
2023/04/11 01:42:35;;;;;;;;;4.00;2.00;;;;;11.55;60.92;100984.88;4975756;28;45339;-63
2023/04/11 01:45:03;;;;;;;;;1.00;1.00;;;;;11.58;60.59;100989.97;4962054;28;45494;-62
2023/04/11 01:47:28;;;;;;;;;1.00;1.00;;;;;11.61;60.97;100987.63;4951666;28;45499;-61
2023/04/11 01:49:54;;;;;;;;;2.00;1.00;;;;;11.49;61.07;100998.41;4980685;28;47970;-64
2023/04/11 01:52:20;;;;;;;;;1.00;1.00;;;;;11.43;61.16;100995.66;4997189;28;45413;-63
2023/04/11 01:54:45;;;;;;;;;4.25;2.00;;;;;11.44;61.02;101003.72;4997290;28;45288;-62
2023/04/11 01:57:11;;;;;;;;;3.00;0.50;;;;;11.38;61.72;100999.06;4981385;28;45229;-62
2023/04/11 01:59:37;;;;;;;;;2.00;0.00;;;;;11.23;60.99;100996.50;4997094;28;45601;-64
2023/04/11 02:02:02;;;;;;;;;1.50;1.00;;;;;11.12;61.21;100959.53;4980995;28;45401;-64
2023/04/11 02:04:28;;;;;;;;;1.00;1.00;;;;;10.92;61.72;100932.03;4997426;28;45238;-63
2023/04/11 02:06:53;;;;;;;;;0.25;0.25;;;;;11.44;61.34;101009.22;4927812;28;45517;-61
2023/04/11 02:09:19;;;;;;;;;0.00;0.00;;;;;11.39;61.44;101020.81;4976741;28;47703;-61
2023/04/11 02:11:44;;;;;;;;;0.50;0.25;;;;;11.43;61.29;101017.66;4977034;28;45421;-63
2023/04/11 02:14:13;;;;;;;;;3.25;0.00;;;;;11.38;61.92;101024.63;4977469;28;45457;-63
2023/04/11 02:16:54;;;;;;;;;0.60;0.00;;;;;11.42;61.73;101036.03;4960941;28;45598;-63
2023/04/11 02:19:21;;;;;;;;;1.20;1.20;;;;;11.42;61.43;101025.03;4977267;28;45808;-63
2023/04/11 02:21:46;;;;;;;;;8.20;2.20;;;;;11.38;62.30;101027.38;4976909;28;45418;-63
2023/04/11 02:24:12;;;;;;;;;0.25;0.25;;;;;11.36;61.51;101028.63;4977518;28;45367;-62
2023/04/11 02:26:39;;;;;;;;;1.00;0.75;;;;;11.41;62.10;101039.84;4977193;28;45682;-63
2023/04/11 02:29:05;;;;;;;;;0.80;0.80;;;;;11.38;61.79;101029.28;4978472;28;46243;-63
2023/04/11 02:31:30;;;;;;;;;4.25;2.25;;;;;11.38;62.51;101023.78;4978256;28;45538;-62
2023/04/11 02:33:56;;;;;;;;;2.00;1.00;;;;;11.39;62.31;101034.56;4960362;28;45182;-62
2023/04/11 02:36:21;;;;;;;;;2.50;1.00;;;;;11.30;62.38;101035.81;4977425;28;45553;-62
2023/04/11 02:38:47;;;;;;;;;1.00;1.00;;;;;11.37;61.99;101039.41;4944772;28;47881;-62
2023/04/11 02:41:13;;;;;;;;;8.50;1.00;;;;;11.26;61.83;101031.78;4960283;28;45636;-63
2023/04/11 02:43:38;;;;;;;;;2.25;0.00;;;;;11.23;62.57;101035.84;4977700;28;45438;-63
2023/04/11 02:46:05;;;;;;;;;2.25;1.00;;;;;11.21;62.92;101037.91;4976827;28;45481;-63
2023/04/11 02:48:31;;;;;;;;;0.80;0.80;;;;;11.16;62.67;101053.34;4990316;28;47183;-62
2023/04/11 02:50:56;;;;;;;;;2.75;1.00;;;;;11.16;63.04;101029.44;4979385;28;45740;-63
2023/04/11 02:53:22;;;;;;;;;0.50;0.00;;;;;11.23;62.72;101041.31;4996521;28;45176;-62
2023/04/11 02:55:47;;;;;;;;;4.00;1.00;;;;;11.18;62.89;101049.34;4997059;28;45607;-62
2023/04/11 02:58:16;;;;;;;;;1.25;0.50;;;;;11.20;63.36;101041.72;4979488;28;47313;-62
2023/04/11 03:00:43;;;;;;;;;1.00;0.40;;;;;11.18;62.80;101032.84;4997442;28;45311;-62
2023/04/11 03:03:08;;;;;;;;;3.60;2.40;;;;;11.27;62.86;101049.13;4963719;28;45301;-62
2023/04/11 03:05:34;;;;;;;;;4.75;2.75;;;;;11.16;63.19;101042.34;4949728;28;45632;-63
2023/04/11 03:08:00;;;;;;;;;2.00;0.75;;;;;11.13;63.37;101049.13;4954873;28;46121;-63
2023/04/11 03:10:26;;;;;;;;;4.25;2.00;;;;;11.11;63.51;101056.72;4972497;28;45617;-63
2023/04/11 03:12:51;;;;;;;;;2.75;1.00;;;;;11.12;63.19;101067.47;4976602;28;45452;-62
2023/04/11 03:15:17;;;;;;;;;1.00;1.00;;;;;11.18;63.86;101063.06;4973830;28;45308;-63
2023/04/11 03:17:42;;;;;;;;;3.00;0.75;;;;;10.96;63.17;101024.78;4976972;28;45562;-63
2023/04/11 03:20:10;;;;;;;;;1.50;0.50;;;;;11.06;63.44;101049.09;4975266;28;45405;-63
2023/04/11 03:22:37;;;;;;;;;2.00;0.00;;;;;11.03;63.71;101048.66;4975364;28;45382;-63
2023/04/11 03:25:03;;;;;;;;;2.00;2.00;;;;;11.14;63.24;101063.72;4975719;28;45426;-62
2023/04/11 03:27:29;;;;;;;;;2.00;1.00;;;;;11.05;63.71;101069.38;4976585;28;45434;-61
2023/04/11 03:29:54;;;;;;;;;0.75;0.50;;;;;11.11;63.36;101068.53;4975334;28;45465;-63
2023/04/11 03:32:20;;;;;;;;;1.75;1.25;;;;;11.08;63.75;101070.84;4976746;28;45489;-62
2023/04/11 03:34:45;;;;;;;;;3.25;2.00;;;;;11.03;63.57;101074.22;4975481;28;45374;-61
2023/04/11 03:37:11;;;;;;;;;0.00;0.00;;;;;10.94;63.90;101075.50;4975026;28;48377;-61
2023/04/11 03:39:36;;;;;;;;;2.00;2.00;;;;;10.96;64.49;101062.38;4976302;28;45381;-62
2023/04/11 03:42:02;;;;;;;;;1.00;1.00;;;;;11.02;63.95;101068.94;4977054;28;45266;-61
2023/04/11 03:44:27;;;;;;;;;3.75;2.00;;;;;10.98;64.11;101065.75;4975727;28;45583;-62
2023/04/11 03:46:53;;;;;;;;;2.00;0.25;;;;;10.94;63.85;101075.50;4959256;28;45364;-63
2023/04/11 03:49:18;;;;;;;;;2.25;0.00;;;;;10.97;64.67;101084.16;4995827;28;45288;-61
2023/04/11 03:51:44;;;;;;;;;1.00;0.00;;;;;11.00;63.93;101074.66;4995151;28;45180;-61
2023/04/11 03:54:10;;;;;;;;;3.00;1.00;;;;;10.93;63.93;101058.16;4994853;28;45321;-62
2023/04/11 03:56:35;;;;;;;;;3.25;0.25;;;;;11.06;63.65;101086.72;4977934;28;47190;-62
2023/04/11 03:59:01;;;;;;;;;3.50;1.00;;;;;11.08;63.66;101077.22;4995952;28;45225;-62
2023/04/11 04:01:26;;;;;;;;;2.00;0.00;;;;;11.07;63.99;101064.53;4994921;28;45249;-63
2023/04/11 04:03:52;;;;;;;;;0.50;0.25;;;;;11.08;63.68;101068.13;4996511;28;45576;-63
2023/04/11 04:06:17;;;;;;;;;1.00;1.00;;;;;10.96;64.71;101079.72;4994125;28;46016;-61
2023/04/11 04:08:43;;;;;;;;;2.00;1.00;;;;;10.97;63.82;101075.91;4994525;28;45310;-63
2023/04/11 04:11:08;;;;;;;;;2.25;1.75;;;;;10.95;64.40;101085.41;4996055;28;45758;-63
2023/04/11 04:13:34;;;;;;;;;2.25;1.25;;;;;10.80;64.72;101072.69;4995919;28;45533;-63
2023/04/11 04:15:59;;;;;;;;;4.50;3.00;;;;;10.75;64.95;101075.19;4995834;28;46267;-63
2023/04/11 04:18:25;;;;;;;;;2.00;1.25;;;;;10.75;64.74;101077.09;4995740;28;45458;-63
2023/04/11 04:20:50;;;;;;;;;2.25;2.25;;;;;10.66;64.63;101040.72;4994498;28;45430;-63
2023/04/11 04:23:22;;;;;;;;;1.00;1.00;;;;;10.90;64.21;101079.69;4994290;28;45719;-63
2023/04/11 04:25:49;;;;;;;;;3.60;2.20;;;;;10.88;64.31;101081.81;4995806;28;46050;-63
2023/04/11 04:28:19;;;;;;;;;2.00;0.40;;;;;10.86;64.71;101079.25;4995939;28;45345;-63
2023/04/11 04:30:48;;;;;;;;;2.00;0.60;;;;;10.79;65.22;101081.97;4996151;28;45299;-63
2023/04/11 04:33:17;;;;;;;;;1.20;1.20;;;;;10.80;65.08;101085.56;4994435;28;45387;-63
2023/04/11 04:35:43;;;;;;;;;1.20;0.80;;;;;10.78;64.48;101076.69;4995359;28;46544;-63
2023/04/11 04:38:08;;;;;;;;;2.75;0.75;;;;;10.86;64.86;101084.75;4994594;28;45278;-64
2023/04/11 04:40:38;;;;;;;;;1.25;1.25;;;;;10.87;64.13;101077.38;4995604;28;45368;-63
2023/04/11 04:43:07;;;;;;;;;6.20;2.80;;;;;10.80;64.56;101069.94;4994558;28;45299;-63
2023/04/11 04:45:33;;;;;;;;;2.60;1.20;;;;;10.81;64.96;101079.00;4995046;28;46618;-63
2023/04/11 04:47:59;;;;;;;;;3.00;1.75;;;;;10.73;64.38;101079.19;4984450;28;45392;-63
2023/04/11 04:50:24;;;;;;;;;2.00;1.00;;;;;10.70;65.46;101075.81;4974446;28;45252;-62
2023/04/11 04:52:50;;;;;;;;;3.00;1.00;;;;;10.69;65.09;101078.75;4974520;28;45358;-62
2023/04/11 04:55:15;;;;;;;;;1.50;1.25;;;;;10.64;65.55;101086.75;4975198;28;46247;-61
2023/04/11 04:57:41;;;;;;;;;1.50;1.50;;;;;10.56;65.41;101090.50;4975323;28;45459;-63
2023/04/11 05:00:10;;;;;;;;;6.40;2.00;;;;;10.68;65.40;101099.88;4974077;28;45236;-63
2023/04/11 05:02:36;;;;;;;;;3.80;2.00;;;;;10.69;65.50;101101.56;4973968;28;45477;-63
2023/04/11 05:05:03;;;;;;;;;4.20;2.60;;;;;10.67;65.08;101097.34;4975269;28;46145;-61
2023/04/11 05:07:30;;;;;;;;;4.80;1.00;;;;;10.67;64.60;101086.38;4973862;28;45483;-63
2023/04/11 05:09:55;;;;;;;;;1.00;1.00;;;;;10.69;65.82;101100.72;4957388;28;45378;-63
2023/04/11 05:12:25;;;;;;;;;2.75;1.00;;;;;10.76;64.80;101118.06;4974213;28;45420;-63
2023/04/11 05:14:51;;;;;;;;;2.00;1.00;;;;;10.79;64.80;101114.91;4973196;28;47259;-62
2023/04/11 05:17:17;;;;;;;;;2.40;2.00;;;;;10.86;64.94;101117.69;4976574;28;45286;-63
2023/04/11 05:19:43;;;;;;;;;2.25;1.00;;;;;10.87;64.92;101113.88;4980621;28;45392;-63
2023/04/11 05:22:08;;;;;;;;;3.25;2.00;;;;;10.89;64.58;101117.28;4982088;28;45293;-64
2023/04/11 05:24:34;;;;;;;;;3.75;2.00;;;;;10.89;64.95;101113.69;4950148;28;46065;-64
2023/04/11 05:26:59;;;;;;;;;1.50;0.50;;;;;10.89;64.65;101127.44;4952021;28;45467;-63
2023/04/11 05:29:26;;;;;;;;;0.75;0.75;;;;;10.85;65.66;101127.81;4980595;28;45291;-61
2023/04/11 05:31:51;;;;;;;;;4.00;1.20;;;;;10.91;65.01;101123.44;4982030;28;45596;-62
2023/04/11 05:34:17;;;;;;;;;2.00;1.25;;;;;10.90;65.04;101109.91;4979758;28;45837;-63
2023/04/11 05:36:45;;;;;;;;;5.25;2.00;;;;;10.94;64.73;101114.75;4963978;28;45323;-63
2023/04/11 05:39:10;;;;;;;;;3.00;1.40;;;;;10.96;65.22;101134.66;4981557;28;45381;-63
2023/04/11 05:41:36;;;;;;;;;2.50;1.50;;;;;10.93;65.33;101128.69;4963973;28;45405;-62
2023/04/11 05:44:01;;;;;;;;;2.50;1.00;;;;;10.90;65.07;101140.09;4981433;28;45976;-64
2023/04/11 05:46:28;;;;;;;;;3.00;2.50;;;;;10.54;64.97;101092.63;4981503;28;45559;-63
2023/04/11 05:48:53;;;;;;;;;0.60;0.60;;;;;10.68;65.50;101127.31;4977546;28;45350;-63
2023/04/11 05:51:19;;;;;;;;;3.00;1.00;;;;;10.69;65.52;101131.75;4983790;28;45319;-62
2023/04/11 05:53:45;;;;;;;;;4.00;2.00;;;;;10.49;65.37;101093.25;5000934;28;46790;-62
2023/04/11 05:56:11;;;;;;;;;4.25;3.75;;;;;10.79;64.85;101128.63;5000869;28;45403;-63
2023/04/11 05:58:37;;;;;;;;;4.40;1.00;;;;;10.78;65.21;101126.13;5000651;28;45208;-63
2023/04/11 06:01:04;;;;;;;;;0.80;0.80;;;;;10.67;65.86;101128.38;4983446;28;45340;-65
2023/04/11 06:03:29;;;;;;;;;1.60;1.60;;;;;10.77;65.98;101138.16;4984849;28;47924;-63
2023/04/11 06:05:55;;;;;;;;;2.75;1.75;;;;;10.75;65.20;101134.75;5001736;28;45440;-63
2023/04/11 06:08:20;;;;;;;;;2.00;1.00;;;;;10.71;64.80;101113.19;4983350;28;45373;-63
2023/04/11 06:10:46;;;;;;;;;1.00;1.00;;;;;10.80;65.39;101129.50;4999863;28;45461;-63
2023/04/11 06:13:11;;;;;;;;;1.25;1.25;;;;;10.69;64.98;101145.47;5000472;28;46056;-64
2023/04/11 06:15:37;;;;;;;;;1.25;1.25;;;;;10.47;65.14;101113.69;4999132;28;45384;-63
2023/04/11 06:18:03;;;;;;;;;1.25;1.25;;;;;10.52;66.12;101147.72;4999644;28;45338;-62
2023/04/11 06:20:28;;;;;;;;;8.25;1.75;;;;;10.58;65.74;101149.66;4999655;28;45298;-64
2023/04/11 06:22:54;;;;;;;;;2.75;2.75;;;;;10.63;65.56;101140.84;4999473;28;46788;-62
2023/04/11 06:25:20;;;;;;;;;1.75;1.00;;;;;10.83;65.54;101151.03;4999664;28;45263;-63
2023/04/11 06:27:46;;;;;;;;;1.50;1.50;;;;;10.85;64.50;101155.28;4999978;28;45240;-63
2023/04/11 06:30:12;;;;;;;;;2.00;2.00;;;;;10.80;65.21;101146.81;4980346;28;45193;-63
2023/04/11 06:32:37;;;;;;;;;4.50;1.25;;;;;10.88;65.23;101156.78;4997493;28;45999;-62
2023/04/11 06:35:03;;;;;;;;;2.00;2.00;;;;;10.82;64.87;101138.38;4979375;28;45944;-64
2023/04/11 06:37:30;;;;;;;;;2.60;2.20;;;;;11.05;64.10;101167.44;4997785;28;45363;-63
2023/04/11 06:39:55;;;;;;;;;2.80;0.40;;;;;10.91;65.01;101152.78;4979854;28;45431;-62
2023/04/11 06:42:21;;;;;;;;;4.25;3.00;;;;;10.96;64.36;101159.38;4996262;28;45377;-63
2023/04/11 06:44:47;;;;;;;;;2.75;2.00;;;;;10.86;64.13;101145.16;4998188;28;45387;-64
2023/04/11 06:47:13;;;;;;;;;4.20;1.40;;;;;10.96;64.45;101162.13;4996539;28;45475;-64
2023/04/11 06:49:39;;;;;;;;;4.00;1.00;;;;;11.05;64.45;101176.50;4944887;28;45605;-64
2023/04/11 06:52:05;;;;;;;;;1.40;1.40;;;;;11.11;64.53;101175.69;4976982;28;46611;-62
2023/04/11 06:54:31;;;;;;;;;2.80;1.60;;;;;11.18;63.52;101181.22;4960644;28;45253;-63
2023/04/11 06:56:57;;;;;;;;;15.25;4.25;;;;;11.15;63.97;101172.53;4976479;28;45220;-63
2023/04/11 06:59:23;;;;;;;;;2.60;2.60;;;;;11.08;64.29;101176.09;4977556;28;45490;-62
2023/04/11 07:01:48;;;;;;;;;2.00;2.00;;;;;11.09;63.92;101182.44;4977247;28;45738;-62
2023/04/11 07:04:14;;;;;;;;;2.25;1.25;;;;;10.91;64.03;101181.09;4959114;28;45389;-62
2023/04/11 07:06:40;;;;;;;;;4.25;3.00;;;;;11.01;64.75;101186.22;4943758;28;45325;-63
2023/04/11 07:09:05;;;;;;;;;2.50;2.50;;;;;11.06;63.89;101193.84;4976124;28;45417;-63
2023/04/11 07:11:31;;;;;;;;;2.25;2.25;;;;;11.15;64.23;101211.84;4975672;28;47677;-62
2023/04/11 07:14:00;;;;;;;;;2.50;2.50;;;;;10.82;63.90;101155.69;4954740;28;46102;-63
2023/04/11 07:16:25;;;;;;;;;3.20;2.20;;;;;11.18;64.01;101214.19;4956187;28;45181;-63
2023/04/11 07:18:52;;;;;;;;;5.00;2.25;;;;;11.19;64.14;101201.28;4974635;28;45184;-65
2023/04/11 07:21:17;;;;;;;;;9.40;2.60;;;;;11.31;63.97;101204.31;4976997;28;46356;-62
2023/04/11 07:23:43;;;;;;;;;5.50;2.50;;;;;11.19;63.77;101171.06;4977073;28;45520;-64
2023/04/11 07:26:09;;;;;;;;;2.20;1.60;;;;;11.46;63.43;101196.72;4976429;28;45504;-63
2023/04/11 07:28:39;;;;;;;;;2.60;1.80;;;;;11.35;63.59;101192.69;4975734;28;45411;-64
2023/04/11 07:31:08;;;;;;;;;3.40;2.20;;;;;11.30;63.80;101181.47;4977079;28;45856;-63
2023/04/11 07:33:34;;;;;;;;;5.00;2.00;;;;;11.18;63.62;101144.63;4973773;28;45406;-63
2023/04/11 07:36:00;;;;;;;;;4.25;3.25;;;;;11.41;63.46;101179.19;4976563;28;45473;-64
2023/04/11 07:38:28;;;;;;;;;3.25;2.25;;;;;11.45;62.87;101181.31;4977099;28;45412;-63
2023/04/11 07:40:58;;;;;;;;;2.40;2.00;;;;;11.51;63.47;101188.72;4975092;28;45734;-63
2023/04/11 07:43:25;;;;;;;;;4.40;1.60;;;;;11.33;63.45;101155.47;4976421;28;45469;-62
2023/04/11 07:45:51;;;;;;;;;4.20;3.20;;;;;11.55;63.12;101200.16;4959204;28;45403;-62
2023/04/11 07:48:16;;;;;;;;;4.20;0.80;;;;;11.59;63.83;101189.59;4982640;28;45410;-64
2023/04/11 07:50:41;;;;;;;;;4.25;2.50;;;;;11.68;62.82;101190.25;4978389;28;47539;-63
2023/04/11 07:53:09;;;;;;;;;4.00;3.25;;;;;11.71;62.76;101189.81;4988750;28;45457;-62
2023/04/11 07:55:37;;;;;;;;;3.80;2.20;;;;;11.62;62.48;101180.91;4974728;28;45342;-63
2023/04/11 07:58:03;;;;;;;;;5.20;2.00;;;;;11.62;62.67;101172.66;4976602;28;45405;-63
2023/04/11 08:00:31;;;;;;;;;3.00;2.75;;;;;11.70;62.12;101177.97;4974547;28;46482;-62
2023/04/11 08:02:58;;;;;;;;;6.40;2.60;;;;;11.58;61.98;101165.91;4975480;28;45401;-63
2023/04/11 08:05:23;;;;;;;;;2.20;1.80;;;;;11.59;62.91;101184.09;4975163;28;45401;-64
2023/04/11 08:07:49;;;;;;;;;2.50;2.00;;;;;11.61;62.51;101184.72;4976565;28;45525;-63
2023/04/11 08:10:15;;;;;;;;;2.25;1.25;;;;;11.70;62.74;101193.63;4966837;28;46428;-63
2023/04/11 08:12:40;;;;;;;;;3.50;3.00;;;;;11.80;62.29;101196.81;4972118;28;45409;-63
2023/04/11 08:15:06;;;;;;;;;6.50;3.50;;;;;11.93;61.95;101191.34;4974422;28;45659;-64
2023/04/11 08:17:36;;;;;;;;;2.75;1.00;;;;;12.03;61.72;101206.56;4910392;28;47648;-63
2023/04/11 08:20:04;;;;;;;;;4.80;2.40;;;;;11.77;61.11;101158.72;4940596;28;46824;-61
2023/04/11 08:22:31;;;;;;;;;1.60;1.00;;;;;11.83;61.51;101179.88;4963585;28;45738;-62
2023/04/11 08:24:57;;;;;;;;;3.80;2.00;;;;;12.15;61.46;101201.31;4969519;28;45867;-61
2023/04/11 08:27:23;;;;;;;;;8.00;3.00;;;;;12.10;60.85;101204.69;4971281;28;46001;-60
2023/04/11 08:29:48;;;;;;;;;11.25;3.00;;;;;12.22;61.07;101190.31;4973701;28;45783;-59
2023/04/11 08:32:14;;;;;;;;;5.00;2.25;;;;;12.00;60.46;101154.75;4967978;28;45884;-61
2023/04/11 08:34:39;;;;;;;;;4.00;4.00;;;;;12.23;60.03;101183.75;4971708;28;45303;-60
2023/04/11 08:37:05;;;;;;;;;3.25;2.25;;;;;12.30;60.10;101190.97;4942728;28;45475;-62
2023/04/11 08:39:30;;;;;;;;;2.50;1.50;;;;;12.38;60.01;101205.56;4976292;28;46515;-62
2023/04/11 08:41:56;;;;;;;;;3.50;1.75;;;;;12.18;58.97;101207.25;4956135;28;46086;-62
2023/04/11 08:44:21;;;;;;;;;5.00;2.00;;;;;12.22;60.11;101204.09;4956153;28;45620;-62
2023/04/11 08:46:47;;;;;;;;;2.25;1.00;;;;;12.30;59.88;101201.09;4974507;28;45606;-63
2023/04/11 08:49:12;;;;;;;;;9.75;3.00;;;;;12.37;59.60;101195.63;4971511;28;45743;-63
2023/04/11 08:51:38;;;;;;;;;3.00;3.00;;;;;12.46;59.30;101191.56;4971201;28;45465;-61
2023/04/11 08:54:04;;;;;;;;;3.75;3.00;;;;;12.57;59.79;101196.44;4973468;28;45319;-61
2023/04/11 08:56:30;;;;;;;;;3.40;1.60;;;;;12.69;59.04;101207.63;4972902;28;45588;-62
2023/04/11 08:58:56;;;;;;;;;2.20;2.00;;;;;12.74;58.42;101220.75;4972856;28;46647;-62
2023/04/11 09:01:30;;;;;;;;;3.50;2.00;;;;;12.56;58.14;101214.03;4977355;28;45779;-62
2023/04/11 09:04:00;;;;;;;;;4.00;1.80;;;;;12.53;58.35;101219.09;4976629;28;45375;-62
2023/04/11 09:06:29;;;;;;;;;1.60;1.60;;;;;12.32;57.73;101157.69;4992444;28;45647;-62
2023/04/11 09:09:05;;;;;;;;;2.80;1.60;;;;;12.66;57.62;101198.94;4992009;28;45400;-61
2023/04/11 09:11:49;;;;;;;;;4.00;3.00;;;;;12.72;57.18;101190.66;4970975;28;45350;-61
2023/04/11 09:14:14;;;;;;;;;5.80;3.20;;;;;12.84;56.63;101196.38;4958770;28;45399;-62
2023/04/11 09:16:52;;;;;;;;;4.00;2.00;;;;;12.95;56.54;101199.50;4973265;28;45283;-60
2023/04/11 09:19:24;;;;;;;;;2.00;1.60;;;;;12.85;55.83;101177.91;4972635;28;47089;-60
2023/04/11 09:21:50;;;;;;;;;4.60;1.40;;;;;12.88;56.88;101200.38;4970327;28;45517;-61
2023/04/11 09:24:15;;;;;;;;;2.25;2.25;;;;;12.89;56.78;101179.19;4953003;28;45349;-61
2023/04/11 09:26:41;;;;;;;;;1.75;1.75;;;;;13.04;56.07;101195.47;4954060;28;45288;-61
2023/04/11 09:29:06;;;;;;;;;2.00;2.00;;;;;13.14;55.42;101187.56;4953762;28;45779;-61
2023/04/11 09:31:42;;;;;;;;;3.00;2.25;;;;;13.20;55.42;101185.00;4953425;28;45391;-61
2023/04/11 09:34:08;;;;;;;;;1.00;1.00;;;;;13.17;54.76;101188.22;4959761;28;45424;-59
2023/04/11 09:36:34;;;;;;;;;1.50;1.50;;;;;13.12;54.28;101192.47;4974000;28;45374;-61
2023/04/11 09:39:01;;;;;;;;;1.25;1.00;;;;;12.93;55.23;101193.38;4987000;28;46450;-61
2023/04/11 09:41:31;;;;;;;;;1.80;1.80;;;;;12.80;53.47;101153.78;4995352;28;45424;-59
2023/04/11 09:43:56;;;;;;;;;1.80;1.00;;;;;12.98;53.77;101185.31;4983711;28;45204;-61
2023/04/11 09:46:22;;;;;;;;;2.00;1.00;;;;;13.01;53.73;101188.47;4979587;28;45648;-62
2023/04/11 09:48:48;;;;;;;;;2.00;1.00;;;;;12.89;54.37;101151.63;4972334;28;45425;-61
2023/04/11 09:51:15;;;;;;;;;2.00;1.00;;;;;12.94;54.23;101162.84;4969984;28;45386;-61
2023/04/11 09:53:40;;;;;;;;;2.20;1.40;;;;;12.97;54.82;101137.63;4942998;28;45496;-58
2023/04/11 09:56:06;;;;;;;;;1.25;1.25;;;;;13.33;54.28;101181.34;4971111;28;45418;-61
2023/04/11 09:58:35;;;;;;;;;2.00;2.00;;;;;13.17;53.89;101183.53;4970866;28;46849;-59
2023/04/11 10:01:01;;;;;;;;;3.00;2.00;;;;;12.88;54.07;101149.94;4971152;28;45740;-56
2023/04/11 10:03:27;;;;;;;;;2.40;2.40;;;;;12.91;54.68;101179.81;4973074;28;45323;-61
2023/04/11 10:05:53;;;;;;;;;3.50;1.25;;;;;13.05;54.66;101169.59;4973881;28;45319;-60
2023/04/11 10:08:31;;;;;;;;;0.60;0.40;;;;;13.22;54.23;101182.88;4974236;28;45935;-61
2023/04/11 10:10:59;;;;;;;;;3.00;3.00;;;;;13.24;53.91;101187.09;4967445;28;45765;-59
2023/04/11 10:13:44;;;;;;;;;1.40;1.40;;;;;13.30;53.96;101188.16;4958746;28;45574;-58
2023/04/11 10:16:10;;;;;;;;;2.80;1.00;;;;;13.29;53.99;101190.06;4955876;28;45331;-59
2023/04/11 10:18:36;;;;;;;;;6.40;5.80;;;;;13.19;54.12;101166.78;4955656;28;46268;-58
2023/04/11 10:21:02;;;;;;;;;3.20;3.00;;;;;13.27;54.19;101159.13;4938379;28;45491;-59
2023/04/11 10:23:28;;;;;;;;;2.40;2.40;;;;;13.44;53.79;101168.78;4958753;28;45455;-59
2023/04/11 10:26:02;;;;;;;;;2.00;2.00;;;;;13.51;54.14;101169.63;4955689;28;45635;-59
2023/04/11 10:28:29;;;;;;;;;3.60;2.60;;;;;13.64;53.51;101163.16;4938702;28;45556;-59
2023/04/11 10:30:59;;;;;;;;;1.00;1.00;;;;;13.67;53.98;101155.28;4955687;28;45383;-58
2023/04/11 10:33:26;;;;;;;;;2.40;2.00;;;;;13.80;53.40;101170.06;4956265;28;45374;-59
2023/04/11 10:36:04;;;;;;;;;2.80;2.40;;;;;13.81;53.09;101171.75;4957840;28;45572;-59
2023/04/11 10:38:47;;;;;;;;;1.40;1.00;;;;;14.04;52.75;101173.91;4956481;28;45607;-61
2023/04/11 10:41:21;;;;;;;;;4.20;2.20;;;;;14.20;51.96;101169.75;4955582;28;45312;-60
2023/04/11 10:43:47;;;;;;;;;3.00;2.00;;;;;14.40;52.23;101154.06;4950277;28;45267;-61
2023/04/11 10:46:19;;;;;;;;;1.50;1.50;;;;;14.47;50.70;101143.81;4975031;28;45767;-62
2023/04/11 10:49:01;;;;;;;;;3.80;1.00;;;;;14.55;51.27;101145.41;4980056;28;46528;-61
2023/04/11 10:51:28;;;;;;;;;6.20;5.00;;;;;14.68;51.16;101150.78;4996057;28;45398;-61
2023/04/11 10:53:54;;;;;;;;;3.00;2.00;;;;;14.71;49.57;101160.53;4942992;28;45384;-58
2023/04/11 10:56:41;;;;;;;;;3.00;1.00;;;;;14.63;49.64;101156.19;4976037;28;45611;-61
2023/04/11 10:59:45;;;;;;;;;3.40;3.40;;;;;14.72;49.30;101146.50;4971373;28;48170;-60
2023/04/11 11:02:10;;;;;;;;;4.80;2.00;;;;;14.67;49.16;101127.00;4948819;28;45364;-60
2023/04/11 11:04:36;;;;;;;;;6.25;3.50;;;;;14.78;49.94;101150.28;4957992;28;45253;-59
2023/04/11 11:07:03;;;;;;;;;4.00;2.60;;;;;14.80;49.44;101119.66;4958751;28;45664;-60
2023/04/11 11:09:29;;;;;;;;;4.60;2.00;;;;;14.95;48.82;101122.03;4974231;28;46559;-62
2023/04/11 11:12:13;;;;;;;;;1.00;1.00;;;;;14.99;49.26;101101.16;4974672;28;45323;-59
2023/04/11 11:14:40;;;;;;;;;5.60;3.80;;;;;15.10;49.18;101103.13;4975604;28;45406;-58
2023/04/11 11:17:06;;;;;;;;;3.60;3.60;;;;;15.03;49.19;101056.22;4974685;28;45673;-60
2023/04/11 11:19:31;;;;;;;;;4.25;4.25;;;;;15.28;48.22;101099.47;4974019;28;45504;-62
2023/04/11 11:22:02;;;;;;;;;2.00;2.00;;;;;15.11;48.24;101073.56;4959002;28;45544;-56